Terminal Aerodrome Forecast
Issued by NWS San Angelo, TX

Home | Current Version | Previous Version | Text Only | Print | Product List | Glossary On
Versions: 1 2 3 4 5 6 7 8 9 10 11 12 13
000
FTUS44 KSJT 241736
TAFSJT
TAF
KSJT 241736Z 2418/2518 17012KT P6SM VCSH SCT040 BKN120
     FM250000 14011KT P6SM SCT040 OVC120
     FM250800 14009KT P6SM VCSH OVC025=

USA.gov is the U.S. government's official web portal to all federal, state and local government web resources and services.